createdAt,value
2023-02-12T00:01:15.442Z,28.02
2023-02-12T00:06:20.254Z,23.35
2023-02-12T00:11:25.926Z,20.58
2023-02-12T00:16:30.338Z,18.30
2023-02-12T00:21:35.744Z,20.00
2023-02-12T00:26:39.060Z,18.52
2023-02-12T00:31:42.951Z,26.00
2023-02-12T00:36:47.634Z,21.25
2023-02-12T00:41:50.892Z,27.98
2023-02-12T00:46:54.155Z,29.60
2023-02-12T00:51:58.817Z,21.63
2023-02-12T00:57:02.161Z,20.23
2023-02-12T01:02:08.131Z,29.17
2023-02-12T01:07:12.831Z,26.88
2023-02-12T01:12:16.132Z,20.67
2023-02-12T01:17:19.417Z,26.53
2023-02-12T01:22:24.163Z,29.27
2023-02-12T01:27:27.545Z,28.40
2023-02-12T01:32:32.666Z,25.77
2023-02-12T01:37:38.141Z,28.20
2023-02-12T01:42:41.541Z,26.95
2023-02-12T01:47:46.518Z,30.30
2023-02-12T01:52:55.598Z,28.13
2023-02-12T01:57:58.901Z,24.92
2023-02-12T02:03:03.079Z,22.02
2023-02-12T02:08:08.155Z,19.92
2023-02-12T02:13:29.193Z,31.52
2023-02-12T02:18:37.381Z,21.70
2023-02-12T02:24:22.400Z,27.20
2023-02-12T02:29:46.729Z,20.25
2023-02-12T02:34:57.993Z,20.30
2023-02-12T02:40:06.787Z,22.73
2023-02-12T02:45:14.663Z,22.52
2023-02-12T02:50:22.019Z,21.30
2023-02-12T02:55:30.263Z,21.90
2023-02-12T03:00:38.889Z,22.38
2023-02-12T03:05:47.765Z,25.13
2023-02-12T03:10:57.750Z,23.83
2023-02-12T03:16:06.293Z,22.33
2023-02-12T03:21:15.011Z,22.03
2023-02-12T03:26:23.377Z,24.25
2023-02-12T03:31:37.190Z,29.75
2023-02-12T03:36:47.337Z,23.03
2023-02-12T03:41:59.980Z,22.53
2023-02-12T03:47:09.918Z,20.58
2023-02-12T03:52:14.768Z,26.53
2023-02-12T03:57:22.184Z,25.65
2023-02-12T04:02:26.136Z,23.65
2023-02-12T04:07:31.447Z,28.08
2023-02-12T04:12:44.444Z,22.15
2023-02-12T04:17:55.961Z,28.45
2023-02-12T04:23:12.767Z,29.73
2023-02-12T04:28:26.768Z,20.90
2023-02-12T04:33:36.764Z,23.13
2023-02-12T04:38:47.559Z,20.23
2023-02-12T04:43:50.935Z,20.17
2023-02-12T04:48:57.290Z,24.70
2023-02-12T04:54:01.972Z,15.63
2023-02-12T04:59:05.984Z,25.50
2023-02-12T05:04:11.225Z,14.17
2023-02-12T05:09:19.573Z,21.77
2023-02-12T05:14:25.931Z,26.77
2023-02-12T05:19:29.405Z,27.73
2023-02-12T05:24:34.190Z,30.53
2023-02-12T05:29:37.865Z,31.63
2023-02-12T05:34:41.166Z,32.87
2023-02-12T05:39:45.773Z,30.47
2023-02-12T05:44:48.979Z,31.57
2023-02-12T05:49:52.638Z,52.33
2023-02-12T05:54:57.274Z,31.97
2023-02-12T06:00:00.546Z,33.10
2023-02-12T06:05:04.378Z,30.40
2023-02-12T06:10:10.649Z,30.55
2023-02-12T06:15:14.076Z,27.10
2023-02-12T06:20:17.755Z,28.40
2023-02-12T06:25:22.531Z,28.43
2023-02-12T06:30:26.374Z,26.17
2023-02-12T06:35:29.777Z,30.53
2023-02-12T06:40:34.812Z,27.93
2023-02-12T06:45:38.148Z,28.53
2023-02-12T06:50:41.400Z,38.80
2023-02-12T06:55:46.080Z,36.95
2023-02-12T07:00:49.426Z,29.73
2023-02-12T07:05:52.931Z,30.07
2023-02-12T07:10:57.679Z,35.72
2023-02-12T07:16:03.941Z,33.00
2023-02-12T07:21:08.902Z,36.58
2023-02-12T07:26:15.162Z,40.83
2023-02-12T07:31:20.417Z,28.70
2023-02-12T07:36:24.954Z,32.50
2023-02-12T07:41:30.869Z,31.87
2023-02-12T07:46:36.498Z,35.22
2023-02-12T07:51:39.806Z,29.98
2023-02-12T07:56:47.180Z,33.13
2023-02-12T08:01:52.226Z,36.25
2023-02-12T08:06:57.092Z,31.10
2023-02-12T08:12:01.741Z,26.05
2023-02-12T08:17:05.518Z,30.97
2023-02-12T08:22:08.791Z,31.35
2023-02-12T08:27:13.490Z,28.48
2023-02-12T08:32:17.300Z,29.92
2023-02-12T08:37:20.652Z,28.17
2023-02-12T08:42:26.103Z,25.85
2023-02-12T08:47:31.302Z,27.08
2023-02-12T08:52:36.301Z,29.35
2023-02-12T08:57:40.920Z,28.65
2023-02-12T09:02:44.424Z,29.20
2023-02-12T09:07:48.506Z,34.95
2023-02-12T09:12:53.136Z,32.97
2023-02-12T09:17:56.531Z,32.40
2023-02-12T09:23:00.477Z,29.05
2023-02-12T09:28:05.701Z,32.70
2023-02-12T09:33:11.219Z,31.02
2023-02-12T09:38:14.817Z,32.35
2023-02-12T09:43:26.553Z,28.23
2023-02-12T09:48:49.383Z,30.42
2023-02-12T09:53:59.187Z,29.60
2023-02-12T09:59:07.406Z,25.30
2023-02-12T10:04:10.729Z,29.10
2023-02-12T10:09:33.039Z,27.45
2023-02-12T10:14:58.212Z,30.40
2023-02-12T10:20:34.458Z,28.05
2023-02-12T10:25:46.328Z,25.25
2023-02-12T10:30:55.886Z,27.02
2023-02-12T10:36:06.008Z,28.33
2023-02-12T10:41:10.964Z,27.80
2023-02-12T10:46:16.949Z,27.63
2023-02-12T10:51:44.667Z,26.05
2023-02-12T10:56:47.939Z,28.38
2023-02-12T11:01:52.646Z,28.80
2023-02-12T11:07:01.743Z,26.58
2023-02-12T11:12:05.589Z,34.20
2023-02-12T11:17:24.436Z,30.48
2023-02-12T11:22:27.846Z,30.00
2023-02-12T11:27:32.349Z,28.23
2023-02-12T11:32:37.441Z,29.17
2023-02-12T11:37:43.270Z,36.67
2023-02-12T11:42:51.581Z,28.92
2023-02-12T11:47:56.249Z,30.05
2023-02-12T11:53:03.150Z,26.83
2023-02-12T11:58:14.956Z,33.60
2023-02-12T12:03:25.236Z,34.23
2023-02-12T12:08:45.043Z,27.38
2023-02-12T12:13:55.169Z,29.00
2023-02-12T12:19:18.173Z,26.77
2023-02-12T12:24:26.340Z,26.40
2023-02-12T12:29:41.394Z,29.75
2023-02-12T12:34:46.300Z,32.65
2023-02-12T12:40:08.339Z,25.92
2023-02-12T12:45:31.830Z,26.38
2023-02-12T12:50:49.623Z,23.25
2023-02-12T12:56:11.812Z,23.92
2023-02-12T13:01:32.177Z,24.55
2023-02-12T13:07:03.492Z,19.40
2023-02-12T13:12:40.513Z,23.80
2023-02-12T13:17:48.727Z,24.73
2023-02-12T13:22:59.651Z,24.60
2023-02-12T13:28:05.995Z,23.52
2023-02-12T13:33:13.970Z,22.05
2023-02-12T13:38:22.556Z,23.80
2023-02-12T13:43:38.124Z,20.10
2023-02-12T13:48:56.464Z,16.92
2023-02-12T13:54:22.350Z,19.88
2023-02-12T13:59:46.842Z,20.15
2023-02-12T14:04:57.271Z,22.08
2023-02-12T14:10:07.871Z,19.30
2023-02-12T14:15:21.924Z,18.90
2023-02-12T14:20:30.466Z,16.73
2023-02-12T14:25:47.020Z,18.48
2023-02-12T14:31:23.830Z,18.73
2023-02-12T14:36:40.950Z,16.60
2023-02-12T14:41:47.019Z,15.07
2023-02-12T14:46:52.191Z,15.50
2023-02-12T14:52:01.601Z,16.42
2023-02-12T14:57:10.423Z,17.20
2023-02-12T15:02:26.104Z,15.05
2023-02-12T15:07:33.025Z,16.83
2023-02-12T15:12:42.230Z,15.43
2023-02-12T15:17:55.690Z,18.30
2023-02-12T15:22:59.153Z,17.95
2023-02-12T15:28:15.436Z,18.38
2023-02-12T15:33:25.705Z,17.05
2023-02-12T15:38:33.569Z,18.03
2023-02-12T15:43:42.766Z,20.75
2023-02-12T15:48:46.306Z,17.52
2023-02-12T15:53:50.044Z,21.47
2023-02-12T15:58:57.031Z,23.67
2023-02-12T16:04:02.697Z,26.67
2023-02-12T16:09:09.521Z,27.02
2023-02-12T16:14:25.161Z,30.47
2023-02-12T16:19:30.228Z,32.45
2023-02-12T16:24:35.280Z,29.55
2023-02-12T16:29:45.951Z,27.53
